Time;durP1;ratioP1;P1;durP2;ratioP2;P2;SDS_P1;SDS_P2;PMS_P1;PMS_P2;Temp;Humidity;BMP_temperature;BMP_pressure;BME280_temperature;BME280_humidity;BME280_pressure;Samples;Min_cycle;Max_cycle;Signal;HPM_P1;HPM_P2
2022/07/01 00:02:00;;;;;;;18.33;13.57;;;14.10;99.90;;;;;;5031490;28;20179;-67
2022/07/01 00:04:27;;;;;;;18.03;13.57;;;14.10;99.90;;;;;;5031079;28;20172;-68
2022/07/01 00:06:53;;;;;;;20.87;14.47;;;14.10;99.90;;;;;;5029359;28;20207;-67
2022/07/01 00:09:19;;;;;;;18.53;13.63;;;14.20;99.90;;;;;;5030163;28;20180;-68
2022/07/01 00:11:44;;;;;;;17.37;12.83;;;14.20;99.90;;;;;;5033723;28;20541;-68
2022/07/01 00:14:10;;;;;;;20.37;15.03;;;14.10;99.90;;;;;;5035045;28;20209;-68
2022/07/01 00:16:36;;;;;;;18.60;13.77;;;14.20;99.90;;;;;;5033557;28;20195;-68
2022/07/01 00:19:03;;;;;;;16.03;12.80;;;14.20;99.90;;;;;;5034229;28;20180;-68
2022/07/01 00:21:28;;;;;;;21.60;13.63;;;14.20;99.90;;;;;;5035014;28;20175;-68
2022/07/01 00:23:54;;;;;;;17.70;12.43;;;14.20;99.90;;;;;;5035067;28;20547;-68
2022/07/01 00:26:19;;;;;;;18.33;12.70;;;14.20;99.90;;;;;;5034742;28;20242;-68
2022/07/01 00:28:45;;;;;;;20.63;12.43;;;14.20;99.90;;;;;;5035104;28;20186;-68
2022/07/01 00:31:11;;;;;;;28.27;13.07;;;14.20;99.90;;;;;;5034821;28;20202;-68
2022/07/01 00:33:36;;;;;;;23.40;13.83;;;14.20;99.90;;;;;;5033380;28;20314;-68
2022/07/01 00:36:02;;;;;;;23.30;14.80;;;14.20;99.90;;;;;;5034594;28;20286;-68
2022/07/01 00:38:28;;;;;;;16.83;12.90;;;14.20;99.90;;;;;;5034899;28;20211;-68
2022/07/01 00:40:54;;;;;;;22.07;14.63;;;14.20;99.90;;;;;;5034857;28;20179;-68
2022/07/01 00:43:22;;;;;;;23.90;14.27;;;14.20;99.90;;;;;;5034284;28;20648;-68
2022/07/01 00:45:49;;;;;;;25.53;14.30;;;14.20;99.90;;;;;;5034231;28;20210;-68
2022/07/01 00:48:15;;;;;;;23.00;15.20;;;14.10;99.90;;;;;;5034905;28;20179;-68
2022/07/01 00:50:41;;;;;;;24.67;14.83;;;14.10;99.90;;;;;;5034180;28;20180;-68
2022/07/01 00:53:07;;;;;;;25.80;15.10;;;14.10;99.90;;;;;;5034961;28;20206;-68
2022/07/01 00:55:32;;;;;;;22.87;13.87;;;14.20;99.90;;;;;;5034249;28;20204;-68
2022/07/01 00:57:58;;;;;;;34.10;14.97;;;14.20;99.90;;;;;;5034638;28;20218;-68
2022/07/01 01:00:26;;;;;;;27.10;15.17;;;14.20;99.90;;;;;;5034226;28;20533;-68
2022/07/01 01:02:51;;;;;;;23.13;15.40;;;14.20;99.90;;;;;;5033404;28;20175;-68
2022/07/01 01:05:17;;;;;;;22.93;14.97;;;14.20;99.90;;;;;;5033969;28;20203;-68
2022/07/01 01:07:43;;;;;;;28.10;15.13;;;14.20;99.90;;;;;;5033109;28;20656;-68
2022/07/01 01:10:10;;;;;;;26.77;15.77;;;14.20;99.90;;;;;;5033871;28;20176;-68
2022/07/01 01:12:35;;;;;;;25.77;15.90;;;14.20;99.90;;;;;;5034267;28;20294;-68
2022/07/01 01:15:01;;;;;;;19.60;15.57;;;14.20;99.90;;;;;;5033687;28;20254;-68
2022/07/01 01:17:28;;;;;;;22.33;15.60;;;14.10;99.90;;;;;;5034554;28;20612;-68
2022/07/01 01:19:53;;;;;;;25.83;16.07;;;14.10;99.90;;;;;;5032745;28;20183;-68
2022/07/01 01:22:19;;;;;;;25.23;15.33;;;14.10;99.90;;;;;;5032443;28;20540;-68
2022/07/01 01:24:47;;;;;;;27.00;15.53;;;14.10;99.90;;;;;;5033428;28;20224;-68
2022/07/01 01:27:13;;;;;;;23.27;15.43;;;14.10;99.90;;;;;;5032790;28;20573;-68
2022/07/01 01:29:39;;;;;;;21.67;15.33;;;14.00;99.90;;;;;;5033737;28;20176;-68
2022/07/01 01:32:06;;;;;;;24.53;15.20;;;14.00;99.90;;;;;;5034004;28;20167;-68
2022/07/01 01:34:33;;;;;;;23.97;15.03;;;13.90;99.90;;;;;;5033298;28;20673;-68
2022/07/01 01:36:59;;;;;;;17.17;13.17;;;13.90;99.90;;;;;;5032572;28;20201;-68
2022/07/01 01:39:24;;;;;;;28.53;14.63;;;13.90;99.90;;;;;;5033697;28;20535;-68
2022/07/01 01:41:50;;;;;;;18.43;13.63;;;13.90;99.90;;;;;;5032572;28;20245;-68
2022/07/01 01:44:16;;;;;;;21.37;12.67;;;13.90;99.90;;;;;;5031752;28;20183;-68
2022/07/01 01:46:42;;;;;;;19.77;12.23;;;13.90;99.90;;;;;;5031875;28;20286;-68
2022/07/01 01:49:08;;;;;;;18.20;12.27;;;13.90;99.90;;;;;;5033502;28;20695;-68
2022/07/01 01:51:34;;;;;;;20.03;12.50;;;14.00;99.90;;;;;;5033595;28;20214;-68
2022/07/01 01:54:00;;;;;;;15.90;11.43;;;14.00;99.90;;;;;;5033083;28;20231;-68
2022/07/01 01:56:26;;;;;;;17.43;10.63;;;13.90;99.90;;;;;;5033431;28;20262;-68
2022/07/01 01:58:51;;;;;;;12.13;10.03;;;13.90;99.90;;;;;;5032010;28;20546;-68
2022/07/01 02:01:18;;;;;;;12.47;10.13;;;13.90;99.90;;;;;;5033256;28;20183;-68
2022/07/01 02:03:46;;;;;;;17.30;10.17;;;13.80;99.90;;;;;;5032880;28;20205;-68
2022/07/01 02:06:13;;;;;;;11.17;10.00;;;13.70;99.90;;;;;;5032058;28;20681;-68
2022/07/01 02:08:39;;;;;;;10.40;9.50;;;13.70;99.90;;;;;;5031900;28;20179;-68
2022/07/01 02:11:05;;;;;;;10.77;9.67;;;13.70;99.90;;;;;;5033064;28;20183;-68
2022/07/01 02:13:31;;;;;;;11.47;9.83;;;13.70;99.90;;;;;;5031363;28;20209;-68
2022/07/01 02:15:57;;;;;;;17.47;10.27;;;13.70;99.90;;;;;;5033014;28;20192;-68
2022/07/01 02:18:23;;;;;;;10.83;9.73;;;13.70;99.90;;;;;;5031918;28;20277;-68
2022/07/01 02:20:49;;;;;;;10.27;9.17;;;13.70;99.90;;;;;;5031777;28;20167;-68
2022/07/01 02:23:15;;;;;;;14.73;9.43;;;13.70;99.90;;;;;;5033049;28;20189;-68
2022/07/01 02:25:41;;;;;;;9.53;8.63;;;13.70;99.90;;;;;;5032624;28;20215;-68
2022/07/01 02:28:07;;;;;;;9.90;9.00;;;13.70;99.90;;;;;;5031438;28;20653;-68
2022/07/01 02:30:36;;;;;;;10.00;8.60;;;13.70;99.90;;;;;;5037928;28;20232;-68
2022/07/01 02:33:03;;;;;;;9.10;8.30;;;13.70;99.90;;;;;;5051898;28;20206;-68
2022/07/01 02:35:29;;;;;;;10.43;8.87;;;13.70;99.90;;;;;;5052262;28;20660;-69
2022/07/01 02:37:54;;;;;;;9.87;8.67;;;13.70;99.90;;;;;;5050879;28;20170;-68
2022/07/01 02:40:20;;;;;;;9.97;8.53;;;13.70;99.90;;;;;;5031214;28;20258;-69
2022/07/01 02:42:46;;;;;;;10.37;7.90;;;13.70;99.90;;;;;;5031257;28;20210;-69
2022/07/01 02:45:12;;;;;;;9.90;8.93;;;13.70;99.90;;;;;;5032028;28;20203;-69
2022/07/01 02:47:40;;;;;;;8.60;7.87;;;13.80;99.90;;;;;;5031956;28;20657;-68
2022/07/01 02:50:11;;;;;;;11.90;8.27;;;13.90;99.90;;;;;;5032312;28;20314;-68
2022/07/01 02:52:38;;;;;;;15.17;8.50;;;13.90;99.90;;;;;;5032187;28;20218;-69
2022/07/01 02:55:05;;;;;;;10.93;7.80;;;14.00;99.90;;;;;;5031990;28;20181;-68
2022/07/01 02:57:31;;;;;;;8.07;7.47;;;14.00;99.90;;;;;;5031998;28;20258;-69
2022/07/01 02:59:57;;;;;;;8.53;7.53;;;14.00;99.90;;;;;;5032199;28;20681;-69
2022/07/01 03:02:23;;;;;;;8.60;6.90;;;14.00;99.90;;;;;;5032174;28;20267;-68
2022/07/01 03:04:50;;;;;;;8.20;7.37;;;14.00;99.90;;;;;;5031916;28;20182;-68
2022/07/01 03:07:16;;;;;;;8.93;8.03;;;14.00;99.90;;;;;;5031891;28;20179;-68
2022/07/01 03:09:43;;;;;;;7.80;6.80;;;14.00;99.90;;;;;;5032111;28;20259;-69
2022/07/01 03:12:25;;;;;;;8.70;7.37;;;13.90;99.90;;;;;;5031697;28;20630;-68
2022/07/01 03:14:51;;;;;;;8.13;7.43;;;13.90;99.90;;;;;;5031388;28;20289;-67
2022/07/01 03:17:18;;;;;;;12.30;7.67;;;13.90;99.90;;;;;;5031835;28;20206;-69
2022/07/01 03:19:44;;;;;;;11.37;7.60;;;13.90;99.90;;;;;;5031754;28;20168;-68
2022/07/01 03:22:10;;;;;;;9.13;7.80;;;13.90;99.90;;;;;;5032061;28;20354;-69
2022/07/01 03:24:35;;;;;;;8.43;7.60;;;13.90;99.90;;;;;;5031120;28;20191;-69
2022/07/01 03:27:01;;;;;;;9.40;7.50;;;13.90;99.90;;;;;;5031715;28;20222;-68
2022/07/01 03:29:27;;;;;;;10.83;7.40;;;13.90;99.90;;;;;;5031247;28;20309;-68
2022/07/01 03:31:52;;;;;;;9.77;8.87;;;13.90;99.90;;;;;;5031867;28;20183;-67
2022/07/01 03:34:18;;;;;;;10.83;9.40;;;14.00;99.90;;;;;;5029580;28;20211;-69
2022/07/01 03:36:43;;;;;;;9.83;8.83;;;14.10;99.90;;;;;;5031677;28;20196;-69
2022/07/01 03:39:09;;;;;;;13.10;8.10;;;14.10;99.90;;;;;;5030182;28;20656;-68
2022/07/01 03:41:35;;;;;;;9.93;7.57;;;14.20;99.90;;;;;;5030351;28;20180;-68
2022/07/01 03:44:00;;;;;;;13.23;7.80;;;14.20;99.90;;;;;;5029878;28;20194;-68
2022/07/01 03:46:26;;;;;;;10.00;8.17;;;14.30;99.90;;;;;;5030042;28;20199;-68
2022/07/01 03:48:51;;;;;;;10.20;8.43;;;14.30;99.90;;;;;;5031384;28;20187;-68
2022/07/01 03:51:17;;;;;;;9.97;8.97;;;14.30;99.90;;;;;;5031627;28;20700;-67
2022/07/01 03:56:27;;;;;;;8.60;7.93;;;14.30;99.90;;;;;;5028060;28;20712;-68
2022/07/01 03:58:53;;;;;;;10.07;8.90;;;14.30;99.90;;;;;;5030026;28;20180;-67
2022/07/01 04:01:19;;;;;;;15.20;8.03;;;14.20;99.90;;;;;;5031419;28;20175;-67
2022/07/01 04:03:44;;;;;;;8.43;7.73;;;14.20;99.90;;;;;;5029762;28;20179;-68
2022/07/01 04:06:10;;;;;;;8.73;7.93;;;14.30;99.90;;;;;;5030165;28;20239;-67
2022/07/01 04:08:36;;;;;;;8.93;8.13;;;14.20;99.90;;;;;;5029790;28;20194;-67
2022/07/01 04:11:01;;;;;;;10.17;7.73;;;14.30;99.90;;;;;;5030185;28;20191;-67
2022/07/01 04:13:27;;;;;;;8.87;7.63;;;14.30;99.90;;;;;;5030782;28;20411;-67
2022/07/01 04:15:53;;;;;;;8.20;7.40;;;14.30;99.90;;;;;;5031106;28;20615;-68
2022/07/01 04:18:19;;;;;;;8.30;7.43;;;14.30;99.90;;;;;;5029464;28;20180;-67
2022/07/01 04:22:32;;;;;;;10.10;8.00;;;14.30;99.90;;;;;;5030076;28;20179;-67
2022/07/01 04:23:30;;;;;;;11.27;7.97;;;14.30;99.90;;;;;;5030532;28;20190;-66
2022/07/01 04:25:55;;;;;;;8.90;8.13;;;14.30;99.90;;;;;;5030309;28;20313;-67
2022/07/01 04:28:21;;;;;;;10.50;7.83;;;14.40;99.90;;;;;;5030592;28;20190;-67
2022/07/01 04:30:46;;;;;;;9.23;8.17;;;14.40;99.90;;;;;;5031197;28;20176;-67
2022/07/01 04:33:13;;;;;;;10.20;7.90;;;14.40;99.90;;;;;;5029504;28;20265;-67
2022/07/01 04:35:39;;;;;;;8.77;7.57;;;14.40;99.90;;;;;;5029487;28;20200;-67
2022/07/01 04:38:05;;;;;;;12.27;8.03;;;14.40;99.90;;;;;;5030750;28;20262;-67
2022/07/01 04:40:30;;;;;;;7.80;6.83;;;14.40;99.90;;;;;;5030979;28;20250;-67
2022/07/01 04:42:56;;;;;;;7.63;7.00;;;14.40;99.90;;;;;;5029956;28;20546;-67
2022/07/01 04:45:21;;;;;;;9.37;6.87;;;14.50;99.90;;;;;;5030710;28;20218;-67
2022/07/01 04:47:47;;;;;;;8.53;7.77;;;14.50;99.90;;;;;;5030625;28;20176;-67
2022/07/01 04:50:12;;;;;;;8.87;6.87;;;14.40;99.90;;;;;;5030725;28;20270;-67
2022/07/01 04:52:38;;;;;;;6.80;6.20;;;14.50;99.90;;;;;;5029214;28;20184;-67
2022/07/01 04:55:04;;;;;;;7.40;6.73;;;14.50;99.90;;;;;;5029185;28;20233;-67
2022/07/01 04:57:30;;;;;;;6.90;6.37;;;14.40;99.90;;;;;;5032766;28;20216;-67
2022/07/01 04:59:56;;;;;;;8.07;6.80;;;14.50;99.90;;;;;;5034592;28;20592;-66
2022/07/01 05:02:21;;;;;;;11.07;7.47;;;14.50;99.90;;;;;;5034210;28;20182;-67
2022/07/01 05:04:47;;;;;;;7.40;6.40;;;14.40;99.90;;;;;;5032817;28;20191;-66
2022/07/01 05:07:27;;;;;;;7.70;6.90;;;14.40;99.90;;;;;;5033174;28;20199;-66
2022/07/01 05:09:56;;;;;;;11.30;6.37;;;14.40;99.90;;;;;;5014719;28;20198;-66
2022/07/01 05:12:22;;;;;;;7.63;6.90;;;14.30;99.90;;;;;;5015002;28;20602;-67
2022/07/01 05:14:49;;;;;;;8.50;7.63;;;14.30;99.90;;;;;;5033444;28;20243;-66
2022/07/01 05:17:14;;;;;;;11.27;6.87;;;14.30;99.90;;;;;;5032783;28;20202;-67
2022/07/01 05:22:24;;;;;;;7.70;6.57;;;14.50;99.90;;;;;;5034100;28;20238;-67
2022/07/01 05:24:50;;;;;;;7.70;6.43;;;14.60;99.90;;;;;;5032640;28;20625;-67
2022/07/01 05:27:15;;;;;;;8.57;6.97;;;14.70;99.90;;;;;;5032651;28;20195;-66
2022/07/01 05:29:41;;;;;;;7.70;6.90;;;14.90;99.90;;;;;;5032746;28;20676;-66
2022/07/01 05:32:07;;;;;;;8.77;6.17;;;15.20;99.90;;;;;;5033695;28;20232;-66
2022/07/01 05:34:32;;;;;;;6.87;6.27;;;15.30;99.90;;;;;;5033442;28;20207;-66
2022/07/01 05:36:58;;;;;;;7.23;6.67;;;15.60;99.90;;;;;;5033545;28;20207;-66
2022/07/01 05:39:25;;;;;;;7.13;6.07;;;15.60;99.90;;;;;;5033823;28;20175;-67
2022/07/01 05:41:50;;;;;;;6.07;5.57;;;15.60;99.90;;;;;;5028997;28;20206;-66
2022/07/01 05:44:16;;;;;;;6.07;5.67;;;15.60;99.90;;;;;;5039422;28;20178;-66
2022/07/01 05:46:42;;;;;;;6.77;6.17;;;15.60;99.90;;;;;;5052108;28;20285;-66
2022/07/01 05:49:07;;;;;;;6.87;6.30;;;15.70;99.90;;;;;;5050200;28;20233;-66
2022/07/01 05:51:33;;;;;;;9.67;6.30;;;15.70;99.90;;;;;;5033465;28;20272;-67
2022/07/01 05:53:59;;;;;;;7.20;6.63;;;15.50;99.90;;;;;;5030040;28;20207;-66
2022/07/01 05:56:25;;;;;;;7.67;6.10;;;15.50;99.90;;;;;;5051772;28;20270;-67
2022/07/01 05:58:51;;;;;;;6.33;5.80;;;15.60;99.90;;;;;;5053175;28;20171;-67
2022/07/01 06:01:17;;;;;;;8.27;5.90;;;15.60;99.90;;;;;;5034580;28;20191;-67
2022/07/01 06:03:43;;;;;;;6.60;6.07;;;15.70;99.90;;;;;;5032814;28;20171;-66
2022/07/01 06:06:08;;;;;;;6.53;5.90;;;15.80;99.90;;;;;;5032938;28;20294;-67
2022/07/01 06:08:34;;;;;;;6.70;6.10;;;15.90;99.90;;;;;;5031584;28;20221;-67
2022/07/01 06:11:00;;;;;;;6.40;5.90;;;16.00;99.90;;;;;;5032031;28;20180;-67
2022/07/01 06:13:25;;;;;;;6.53;5.93;;;16.00;99.90;;;;;;5032720;28;20227;-67
2022/07/01 06:15:51;;;;;;;5.83;5.33;;;16.10;99.90;;;;;;5031928;28;20200;-67
2022/07/01 06:18:17;;;;;;;5.57;5.17;;;16.30;99.90;;;;;;5032852;28;20183;-67
2022/07/01 06:20:43;;;;;;;6.23;5.63;;;16.40;99.90;;;;;;5031542;28;20172;-67
2022/07/01 06:23:09;;;;;;;6.47;5.77;;;16.30;99.90;;;;;;5031621;28;20190;-67
2022/07/01 06:25:34;;;;;;;6.40;6.00;;;16.40;99.90;;;;;;5032647;28;20215;-67
2022/07/01 06:28:00;;;;;;;6.70;6.20;;;16.50;99.90;;;;;;5032752;28;20202;-67
2022/07/01 06:30:25;;;;;;;6.40;5.80;;;16.40;99.90;;;;;;5032744;28;20637;-67
2022/07/01 06:32:51;;;;;;;6.73;6.30;;;16.40;99.90;;;;;;5031991;28;20231;-67
2022/07/01 06:35:17;;;;;;;6.87;6.27;;;16.50;99.90;;;;;;5052537;28;20377;-67
2022/07/01 06:37:42;;;;;;;5.87;5.33;;;16.60;99.90;;;;;;5048031;28;20183;-66
2022/07/01 06:40:08;;;;;;;7.17;6.07;;;16.90;99.90;;;;;;5032838;28;20730;-67
2022/07/01 06:42:34;;;;;;;5.90;5.30;;;17.10;99.90;;;;;;5032555;28;20184;-67
2022/07/01 06:45:00;;;;;;;6.17;5.57;;;17.10;99.90;;;;;;5030954;28;20180;-67
2022/07/01 06:47:26;;;;;;;7.33;6.57;;;17.30;99.90;;;;;;5032245;28;20211;-66
2022/07/01 06:49:51;;;;;;;6.60;5.90;;;17.40;99.90;;;;;;5031153;28;20237;-67
2022/07/01 06:52:17;;;;;;;6.73;6.13;;;17.50;99.90;;;;;;5032167;28;20180;-67
2022/07/01 06:54:43;;;;;;;6.17;5.70;;;17.50;99.90;;;;;;5031820;28;20218;-67
2022/07/01 06:57:08;;;;;;;6.50;6.10;;;17.80;99.90;;;;;;5031877;28;20249;-66
2022/07/01 06:59:34;;;;;;;7.57;6.87;;;17.90;99.90;;;;;;5032191;28;20516;-67
2022/07/01 07:02:00;;;;;;;7.60;6.43;;;18.10;99.90;;;;;;5030759;28;20510;-67
2022/07/01 07:04:26;;;;;;;7.37;6.67;;;18.20;99.90;;;;;;5030331;28;20179;-67
2022/07/01 07:06:51;;;;;;;7.20;6.50;;;18.20;99.90;;;;;;5030572;28;20214;-67
2022/07/01 07:09:17;;;;;;;10.57;6.93;;;18.30;99.90;;;;;;5032081;28;20183;-66
2022/07/01 07:11:43;;;;;;;7.43;6.83;;;18.10;99.90;;;;;;5031781;28;20187;-67
2022/07/01 07:14:08;;;;;;;8.80;8.00;;;18.00;99.90;;;;;;5031904;28;20246;-67
2022/07/01 07:16:34;;;;;;;8.10;7.50;;;18.00;99.90;;;;;;5030317;28;20222;-67
2022/07/01 07:18:59;;;;;;;6.80;6.20;;;18.00;99.90;;;;;;5031871;28;20233;-67
2022/07/01 07:21:25;;;;;;;7.07;6.47;;;17.80;99.90;;;;;;5031545;28;20184;-67
2022/07/01 07:23:50;;;;;;;6.93;6.37;;;17.80;99.90;;;;;;5031918;28;20628;-67
2022/07/01 07:26:16;;;;;;;7.10;6.60;;;17.70;99.90;;;;;;5030320;28;20211;-67
2022/07/01 07:28:42;;;;;;;6.90;6.30;;;17.80;99.90;;;;;;5031673;28;20288;-68
2022/07/01 07:31:07;;;;;;;7.10;6.50;;;17.70;99.90;;;;;;5031676;28;20183;-67
2022/07/01 07:33:33;;;;;;;7.20;6.70;;;17.60;99.90;;;;;;5030101;28;20206;-67
2022/07/01 07:35:58;;;;;;;7.87;7.07;;;17.50;99.90;;;;;;5031761;28;20207;-67
2022/07/01 07:38:24;;;;;;;10.27;7.03;;;17.50;99.90;;;;;;5031489;28;20581;-67
2022/07/01 07:40:50;;;;;;;7.10;6.30;;;17.60;99.90;;;;;;5031466;28;20183;-67
2022/07/01 07:43:15;;;;;;;8.17;7.03;;;17.60;99.90;;;;;;5030613;28;20180;-67
2022/07/01 07:45:41;;;;;;;10.17;6.77;;;17.80;99.90;;;;;;5030796;28;20227;-67
2022/07/01 07:48:08;;;;;;;6.63;6.03;;;18.10;99.90;;;;;;5030515;28;20282;-67
2022/07/01 07:50:34;;;;;;;7.10;6.30;;;18.50;99.90;;;;;;5030967;28;20242;-67
2022/07/01 07:52:59;;;;;;;7.17;6.57;;;18.80;99.90;;;;;;5031466;28;20187;-67
2022/07/01 07:55:25;;;;;;;7.00;6.40;;;19.20;99.90;;;;;;5029799;28;20587;-67
2022/07/01 07:57:51;;;;;;;6.67;6.27;;;19.30;99.90;;;;;;5031432;28;20258;-67
2022/07/01 08:00:17;;;;;;;8.30;6.00;;;19.00;99.90;;;;;;5029977;28;20171;-67
2022/07/01 08:02:43;;;;;;;6.07;5.47;;;19.00;99.90;;;;;;5031245;28;20233;-67
2022/07/01 08:05:10;;;;;;;7.60;6.90;;;19.20;99.90;;;;;;5030765;28;20176;-67
2022/07/01 08:07:38;;;;;;;6.13;5.57;;;19.10;99.90;;;;;;5029934;28;20175;-67
2022/07/01 08:10:08;;;;;;;6.10;5.50;;;19.20;99.90;;;;;;5027601;28;20514;-67
2022/07/01 08:12:34;;;;;;;8.00;5.50;;;19.20;99.90;;;;;;5010216;28;20175;-67
2022/07/01 08:15:00;;;;;;;5.77;5.27;;;19.40;99.90;;;;;;5015178;28;20175;-67
2022/07/01 08:17:26;;;;;;;8.50;6.77;;;19.30;99.90;;;;;;5031714;28;20237;-67
2022/07/01 08:19:52;;;;;;;6.23;5.73;;;19.30;99.90;;;;;;5031436;28;20175;-67
2022/07/01 08:22:17;;;;;;;7.57;6.87;;;19.50;99.90;;;;;;5030107;28;20274;-67
2022/07/01 08:24:43;;;;;;;9.13;8.53;;;19.70;99.90;;;;;;5029312;28;20180;-67
2022/07/01 08:27:08;;;;;;;5.53;5.23;;;20.00;99.90;;;;;;5030186;28;20211;-67
2022/07/01 08:29:34;;;;;;;6.17;5.57;;;20.10;99.90;;;;;;5031144;28;20685;-67
2022/07/01 08:32:00;;;;;;;11.17;7.50;;;19.90;99.90;;;;;;5033331;28;20208;-67
2022/07/01 08:34:25;;;;;;;5.80;5.40;;;19.50;99.90;;;;;;5033190;28;20203;-68
2022/07/01 08:36:51;;;;;;;7.77;7.07;;;19.10;99.90;;;;;;5034850;28;20199;-67
2022/07/01 08:39:17;;;;;;;5.40;4.97;;;18.80;99.90;;;;;;5034760;28;20175;-67
2022/07/01 08:41:43;;;;;;;5.43;4.93;;;18.60;99.90;;;;;;5034013;28;20461;-67
2022/07/01 08:44:09;;;;;;;5.80;5.43;;;18.60;99.90;;;;;;5032589;28;20266;-67
2022/07/01 08:46:35;;;;;;;6.13;5.50;;;18.60;99.90;;;;;;5032841;28;20686;-66
2022/07/01 08:49:01;;;;;;;8.37;5.37;;;18.60;99.90;;;;;;5030011;28;20187;-67
2022/07/01 08:51:27;;;;;;;6.40;4.93;;;18.90;99.90;;;;;;5034753;28;20337;-67
2022/07/01 08:53:53;;;;;;;7.07;5.83;;;19.00;99.90;;;;;;5033644;28;20303;-67
2022/07/01 08:59:02;;;;;;;4.90;4.50;;;20.10;99.90;;;;;;5032745;28;20214;-67
2022/07/01 09:01:28;;;;;;;5.50;4.90;;;20.80;99.90;;;;;;5034041;28;20179;-67
2022/07/01 09:03:55;;;;;;;4.23;4.03;;;21.20;99.90;;;;;;5034044;28;20573;-67
2022/07/01 09:06:23;;;;;;;4.40;4.03;;;21.80;99.90;;;;;;5034363;28;20206;-67
2022/07/01 09:08:49;;;;;;;4.27;3.80;;;22.10;99.90;;;;;;5034318;28;20180;-67
2022/07/01 09:11:24;;;;;;;3.78;3.55;;;22.30;99.90;;;;;;5031970;28;20190;-67
2022/07/01 09:14:06;;;;;;;4.37;3.97;;;22.20;99.90;;;;;;5034033;28;20764;-67
2022/07/01 09:16:43;;;;;;;4.73;4.33;;;21.80;99.90;;;;;;5032592;28;20204;-67
2022/07/01 09:19:08;;;;;;;4.40;4.10;;;21.70;99.90;;;;;;5033046;28;20175;-67
2022/07/01 09:21:34;;;;;;;4.77;4.37;;;21.50;99.90;;;;;;5033940;28;20237;-67
2022/07/01 09:24:04;;;;;;;5.40;4.53;;;21.30;99.90;;;;;;5029346;28;20187;-67
2022/07/01 09:26:31;;;;;;;5.27;4.87;;;21.20;99.90;;;;;;5032523;28;20218;-67
2022/07/01 09:28:59;;;;;;;4.77;4.37;;;21.30;99.90;;;;;;5034061;28;20207;-67
2022/07/01 09:31:35;;;;;;;4.93;4.53;;;21.50;99.90;;;;;;5033586;28;20641;-67
2022/07/01 09:34:10;;;;;;;4.78;4.28;;;21.90;99.90;;;;;;5033650;28;20214;-67
2022/07/01 09:36:41;;;;;;;5.07;4.07;;;22.40;99.90;;;;;;5013753;28;20204;-67
2022/07/01 09:39:07;;;;;;;4.90;4.30;;;22.50;99.90;;;;;;5019898;28;20660;-67
2022/07/01 09:41:37;;;;;;;4.93;4.60;;;22.50;99.90;;;;;;5033636;28;20230;-67
2022/07/01 09:44:09;;;;;;;5.13;4.83;;;22.10;99.90;;;;;;5032984;28;20554;-67
2022/07/01 09:46:35;;;;;;;5.85;4.68;;;22.00;99.90;;;;;;5033325;28;20201;-67
2022/07/01 09:49:02;;;;;;;6.10;5.60;;;22.00;99.90;;;;;;5032721;28;20188;-67
2022/07/01 09:51:29;;;;;;;6.00;5.30;;;21.60;99.90;;;;;;5032189;28;20566;-67
2022/07/01 09:53:56;;;;;;;5.80;5.10;;;21.80;99.90;;;;;;5032883;28;20203;-67
2022/07/01 09:56:25;;;;;;;5.05;4.63;;;22.20;99.90;;;;;;5033717;28;20187;-67
2022/07/01 09:58:51;;;;;;;4.90;4.50;;;22.10;99.90;;;;;;5033163;28;20184;-67
2022/07/01 10:01:17;;;;;;;5.10;4.10;;;22.20;99.90;;;;;;5033443;28;20543;-68
2022/07/01 10:03:43;;;;;;;4.43;4.00;;;22.20;99.90;;;;;;5032704;28;20679;-67
2022/07/01 10:06:24;;;;;;;4.05;3.85;;;22.00;99.90;;;;;;5032483;28;20219;-67
2022/07/01 10:09:02;;;;;;;6.15;4.68;;;22.30;99.90;;;;;;5031861;28;20233;-67
2022/07/01 10:11:49;;;;;;;4.20;3.80;;;22.60;99.90;;;;;;5033379;28;20175;-67
2022/07/01 10:14:16;;;;;;;4.60;4.17;;;22.80;99.90;;;;;;5032937;28;20209;-67
2022/07/01 10:16:44;;;;;;;4.60;4.20;;;22.80;99.90;;;;;;5033100;28;20560;-67
2022/07/01 10:19:27;;;;;;;4.22;3.92;;;23.00;99.90;;;;;;5031742;28;20176;-67
2022/07/01 10:21:56;;;;;;;4.80;4.50;;;23.00;99.90;;;;;;5032183;28;20279;-67
2022/07/01 10:24:24;;;;;;;5.20;4.55;;;23.00;99.90;;;;;;5032681;28;20180;-67
2022/07/01 10:26:50;;;;;;;4.53;4.28;;;22.80;99.90;;;;;;5032540;28;20242;-67
2022/07/01 10:29:36;;;;;;;4.82;4.50;;;22.70;99.90;;;;;;5045647;28;20210;-67
2022/07/01 10:32:09;;;;;;;4.67;4.33;;;22.50;99.90;;;;;;5047958;28;20274;-67
2022/07/01 10:34:39;;;;;;;8.40;5.03;;;22.20;99.90;;;;;;5032230;28;20290;-67
2022/07/01 10:37:10;;;;;;;4.63;4.23;;;21.70;99.90;;;;;;5031864;28;20242;-67
2022/07/01 10:39:54;;;;;;;4.23;4.03;;;21.60;99.90;;;;;;5032632;28;20572;-67
2022/07/01 10:42:19;;;;;;;4.10;3.90;;;21.50;99.90;;;;;;5031276;28;20175;-67
2022/07/01 10:45:03;;;;;;;4.33;4.13;;;21.50;99.90;;;;;;5032173;28;20664;-67
2022/07/01 10:47:29;;;;;;;5.97;4.20;;;21.40;99.90;;;;;;5030800;28;20190;-67
2022/07/01 10:49:57;;;;;;;3.70;3.50;;;21.80;99.90;;;;;;5032390;28;20195;-67
2022/07/01 10:52:23;;;;;;;3.85;3.55;;;22.30;99.90;;;;;;5030706;28;20183;-67
2022/07/01 10:54:59;;;;;;;4.03;3.67;;;23.10;99.90;;;;;;5030008;28;20229;-67
2022/07/01 10:57:41;;;;;;;3.58;3.30;;;23.70;99.90;;;;;;5030576;28;20199;-67
2022/07/01 11:00:06;;;;;;;4.18;3.83;;;23.70;99.90;;;;;;5032391;28;20286;-67
2022/07/01 11:02:34;;;;;;;3.38;3.08;;;23.30;99.90;;;;;;5031885;28;20266;-67
2022/07/01 11:05:07;;;;;;;4.10;3.22;;;23.40;99.90;;;;;;5030562;28;20637;-67
2022/07/01 11:07:35;;;;;;;2.78;2.67;;;24.00;99.90;;;;;;5030459;28;20187;-67
2022/07/01 11:10:03;;;;;;;3.17;2.90;;;24.40;99.90;;;;;;5032109;28;20207;-67
2022/07/01 11:12:30;;;;;;;4.40;3.85;;;24.40;99.90;;;;;;5031694;28;20183;-67
2022/07/01 11:14:58;;;;;;;3.00;2.80;;;24.50;99.90;;;;;;5031668;28;20205;-67
2022/07/01 11:17:25;;;;;;;4.35;3.38;;;24.70;99.90;;;;;;5031018;28;20168;-67
2022/07/01 11:19:53;;;;;;;3.25;3.05;;;24.60;99.90;;;;;;5030847;28;20171;-67
2022/07/01 11:22:21;;;;;;;4.13;3.83;;;24.10;99.90;;;;;;5030647;28;20167;-67
2022/07/01 11:24:51;;;;;;;3.53;3.33;;;23.40;99.90;;;;;;5030141;28;20544;-67
2022/07/01 11:27:17;;;;;;;3.60;3.40;;;23.30;99.90;;;;;;5029742;28;20564;-68
2022/07/01 11:29:42;;;;;;;4.10;3.80;;;23.00;99.90;;;;;;5041442;28;20175;-68
2022/07/01 11:32:08;;;;;;;3.20;3.00;;;22.80;99.90;;;;;;5038145;28;20184;-67
2022/07/01 11:34:36;;;;;;;3.72;3.10;;;23.30;99.90;;;;;;5029986;28;20684;-67
2022/07/01 11:40:11;;;;;;;3.40;3.10;;;24.30;99.90;;;;;;5032045;28;20668;-68
2022/07/01 11:42:37;;;;;;;3.05;2.85;;;24.80;99.90;;;;;;5029962;28;20262;-67
2022/07/01 11:45:03;;;;;;;3.40;3.15;;;24.90;99.90;;;;;;5030044;28;20184;-67
2022/07/01 11:47:29;;;;;;;3.40;3.10;;;24.60;99.90;;;;;;5031349;28;20557;-67
2022/07/01 11:49:56;;;;;;;3.85;3.58;;;24.30;99.90;;;;;;5030349;28;20172;-67
2022/07/01 11:52:22;;;;;;;3.20;3.00;;;23.60;99.90;;;;;;5031623;28;20179;-67
2022/07/01 11:54:50;;;;;;;3.83;3.55;;;23.00;99.90;;;;;;5029979;28;20210;-67
2022/07/01 11:57:17;;;;;;;3.80;3.60;;;22.80;99.90;;;;;;5029533;28;20277;-67
2022/07/01 11:59:44;;;;;;;3.50;3.30;;;23.00;99.90;;;;;;5030226;28;20190;-67
2022/07/01 12:02:13;;;;;;;3.03;2.90;;;23.00;99.90;;;;;;5031721;28;20649;-67
2022/07/01 12:04:39;;;;;;;3.10;3.00;;;23.00;99.90;;;;;;5031029;28;20614;-67
2022/07/01 12:07:06;;;;;;;4.28;3.00;;;22.90;99.90;;;;;;5035326;28;20281;-67
2022/07/01 12:09:33;;;;;;;3.20;3.00;;;23.40;99.90;;;;;;5036623;28;20203;-67
2022/07/01 12:11:59;;;;;;;3.17;2.97;;;24.10;99.90;;;;;;5035545;28;20262;-67
2022/07/01 12:14:27;;;;;;;3.42;3.20;;;24.70;99.90;;;;;;5038112;28;20294;-68
2022/07/01 12:16:55;;;;;;;3.28;3.08;;;24.70;99.90;;;;;;5036622;28;20222;-68
2022/07/01 12:19:38;;;;;;;3.30;3.10;;;24.50;99.90;;;;;;5035576;28;20286;-67
2022/07/01 12:22:09;;;;;;;3.50;3.30;;;24.10;99.90;;;;;;5035961;28;20622;-67
2022/07/01 12:24:35;;;;;;;3.47;3.17;;;24.40;99.90;;;;;;5036463;28;20183;-67
2022/07/01 12:27:07;;;;;;;3.22;2.95;;;25.10;99.90;;;;;;5036210;28;20233;-67
2022/07/01 12:29:45;;;;;;;3.10;2.90;;;25.60;99.90;;;;;;5037145;28;20555;-67
2022/07/01 12:32:13;;;;;;;3.50;3.30;;;25.80;99.90;;;;;;5035632;28;20525;-67
2022/07/01 12:35:33;;;;;;;3.47;3.17;;;25.90;99.90;;;;;;5034452;28;20242;-67
2022/07/01 12:37:54;;;;;;;3.30;3.00;;;26.10;99.90;;;;;;5034913;28;20226;-67
2022/07/01 12:40:29;;;;;;;4.03;3.60;;;26.30;99.90;;;;;;5036129;28;20175;-67
2022/07/01 12:42:59;;;;;;;4.00;3.63;;;26.70;99.90;;;;;;5032441;28;20179;-67
2022/07/01 12:45:26;;;;;;;3.78;2.92;;;27.20;99.90;;;;;;5033058;28;20242;-67
2022/07/01 12:47:54;;;;;;;3.22;3.03;;;27.30;99.90;;;;;;5034629;28;20208;-67
2022/07/01 12:50:22;;;;;;;3.22;2.97;;;27.40;99.90;;;;;;5034437;28;20183;-67
2022/07/01 12:53:08;;;;;;;4.05;3.10;;;27.40;99.90;;;;;;5033321;28;20259;-67
2022/07/01 12:55:42;;;;;;;3.42;3.05;;;27.10;99.90;;;;;;5033898;28;20211;-67